Atlantic Emblem — 3ETX4 — position and weather

sailwx.info

Track history (hours):
 
Tides and Currents Weather Stations Pressure Air Temp Water Temp Dewpoint Dewpoint Depression Visibility Wind Speed Wind Dir Waves Ship Positions

Atlantic Emblem

Last reported at 2018-Jun-06 09:04 UTC. Time now 2018-Jun-22 15:01 UTC.
Position N 36°51' E 012°59'.
Warning: this ship's position is 16 days out of date.

Length 171 m; draft 7.7 m.

Type: Cargo ship. MMSI: 351404034.

Date/timePositionNaut miles runAvg speedWind from/ knotsBaromVisibWave heightAir tempDewpointWater temp
2018-Jun-06 09:04N 36°51' E 012°59'111.5
2018-Jun-06 09:00N 36°51' E 012°59'611.5
2018-Jun-06 08:27N 36°49' E 013°07'511.7
2018-Jun-06 08:00N 36°47' E 013°13'611.9
2018-Jun-06 07:30N 36°44' E 013°20'611.8
2018-Jun-06 06:59N 36°42' E 013°27'1411.3
2018-Jun-06 05:46N 36°36' E 013°42'311.3
2018-Jun-06 05:30N 36°35' E 013°46'611.6
2018-Jun-06 04:56N 36°33' E 013°53'511.8
2018-Jun-06 04:30N 36°31' E 013°59'611.9
2018-Jun-06 04:01N 36°29' E 014°06'612.0
2018-Jun-06 03:31N 36°26' E 014°13'  
2018-Jun-03 16:01N 39°52' E 025°48'012.4
2018-Jun-03 15:59N 39°53' E 025°48'11711.7
2018-Jun-03 06:00N 40°49' E 028°03'1611.8
2018-Jun-03 04:37N 40°52' E 028°24'128 3.8
2018-Jun-01 19:15N 42°50' E 029°31'312.2
2018-Jun-01 18:59N 42°53' E 029°32'612.0
2018-Jun-01 18:30N 42°59' E 029°32'3 5.4
2018-Jun-01 18:00N 42°56' E 029°33'1 2.8
2018-Jun-01 17:30N 42°55' E 029°33'612.4
2018-Jun-01 17:00N 43°01' E 029°34'612.5
2018-Jun-01 16:30N 43°07' E 029°35'712.4
2018-Jun-01 15:59N 43°13' E 029°37'612.5
2018-Jun-01 15:29N 43°19' E 029°38'612.5
2018-Jun-01 15:00N 43°25' E 029°39'612.6
2018-Jun-01 14:30N 43°32' E 029°41'612.6
2018-Jun-01 14:00N 43°38' E 029°42'612.4
2018-Jun-01 13:29N 43°44' E 029°44'612.2
2018-Jun-01 13:00N 43°50' E 029°45'612.1
2018-Jun-01 12:30N 43°56' E 029°47'612.1
2018-Jun-01 12:00N 44°02' E 029°48'612.1
2018-Jun-01 11:30N 44°08' E 029°50'712.2
2018-Jun-01 10:58N 44°14' E 029°52'612.1
2018-Jun-01 10:30N 44°20' E 029°53'612.2
2018-Jun-01 10:00N 44°26' E 029°54'612.2
2018-Jun-01 09:30N 44°32' E 029°56'712.1
2018-Jun-01 08:55N 44°39' E 029°58'512.1
2018-Jun-01 08:30N 44°44' E 029°59'612.1
2018-Jun-01 08:00N 44°50' E 030°00'2311.9
2018-Jun-01 06:05N 45°12' E 030°05'5611.8
2018-Jun-01 01:20N 46°00' E 030°47'511.6
2018-Jun-01 00:56N 46°04' E 030°49'711.9
2018-Jun-01 00:21N 46°11' E 030°54'410.8
2018-May-31 23:59N 46°15' E 030°54'511.1
2018-May-31 23:30N 46°20' E 030°55'611.8
2018-May-31 23:00N 46°26' E 030°56'611.5
2018-May-31 22:30N 46°32' E 030°55'5 9.9
2018-May-31 22:00N 46°34' E 031°02'5 9.5
2018-May-31 21:30N 46°35' E 031°09'611.4
2018-May-31 20:59N 46°35' E 031°17'511.0
2018-May-31 20:30N 46°35' E 031°25'4 8.9
2018-May-31 20:00N 46°35' E 031°31'510.2
2018-May-31 19:30N 46°36' E 031°39'510.3
2018-May-31 18:59N 46°36' E 031°47'5 9.7
2018-May-31 18:30N 46°37' E 031°53'4 8.9
2018-May-31 18:00N 46°41' E 031°56'4 8.9
2018-May-31 17:30N 46°45' E 031°54'5 9.4
2018-May-31 17:00N 46°50' E 031°56'5 9.5
2018-May-31 16:30N 46°53' E 032°00'3 5.8
2018-May-31 16:00N 46°56' E 032°00'1 1.5
2018-May-31 15:29N 46°57' E 031°60'0 0.0
2018-May-31 14:59N 46°57' E 031°60'0 0.0
2018-May-31 14:29N 46°57' E 031°60'0 0.0
2018-May-31 13:59N 46°57' E 031°60'0 0.0
2018-May-31 13:29N 46°57' E 031°60'0 0.0
2018-May-31 12:59N 46°57' E 031°60'0 0.0
2018-May-31 12:29N 46°57' E 031°60'0 0.0
2018-May-31 11:59N 46°57' E 031°60'0 0.0
2018-May-31 11:29N 46°57' E 031°60'0 0.0
2018-May-31 10:59N 46°57' E 031°60'0 0.0
2018-May-31 10:29N 46°57' E 031°60'0 0.0
2018-May-31 09:59N 46°57' E 031°60'0 0.0
2018-May-31 09:29N 46°57' E 031°60'0 0.0
2018-May-31 08:59N 46°57' E 031°60'0 0.0
2018-May-31 08:29N 46°57' E 031°60'0 0.0
2018-May-31 07:59N 46°57' E 031°60'0 0.0
2018-May-31 07:29N 46°57' E 031°60'0 0.0
2018-May-31 06:59N 46°57' E 031°60'0 0.0
2018-May-31 06:29N 46°57' E 031°60'0 0.0
2018-May-31 05:59N 46°57' E 031°60'0 0.0
2018-May-31 05:29N 46°57' E 031°60'0 0.0
2018-May-31 04:59N 46°57' E 031°60'0 0.0
2018-May-31 04:29N 46°57' E 031°60'0 0.0
2018-May-31 03:59N 46°57' E 031°60'0 0.0
2018-May-31 03:29N 46°57' E 031°60'0 0.0
2018-May-31 02:59N 46°57' E 031°60'0 0.0
2018-May-31 02:29N 46°57' E 031°60'0 0.0
2018-May-31 01:59N 46°57' E 031°60'0 0.0
2018-May-31 01:29N 46°57' E 031°60'0 0.0
2018-May-31 00:59N 46°57' E 031°60'0 0.0
2018-May-31 00:29N 46°57' E 031°60'0 0.0
2018-May-30 23:59N 46°57' E 031°60'0 0.0
2018-May-30 23:29N 46°57' E 031°60'0 0.0
2018-May-30 22:59N 46°57' E 031°60'0 0.0
2018-May-30 22:29N 46°57' E 031°60'0 0.0
2018-May-30 21:59N 46°57' E 031°60'0 0.0
2018-May-30 21:29N 46°57' E 031°60'0 0.0
2018-May-30 20:59N 46°57' E 031°60'0 0.0
2018-May-30 20:29N 46°57' E 031°60'0 0.0
2018-May-30 19:59N 46°57' E 031°60'0 0.0
2018-May-30 19:29N 46°57' E 031°60'0 0.0
2018-May-30 18:59N 46°57' E 031°60'0 0.0
2018-May-30 18:29N 46°57' E 031°60'0 0.0
2018-May-30 17:53N 46°57' E 031°60'0 0.0
2018-May-30 17:29N 46°57' E 031°60'0 0.0
2018-May-30 16:59N 46°57' E 031°60'0 0.0
2018-May-30 16:29N 46°57' E 031°60'0 0.0
2018-May-30 15:59N 46°57' E 031°60'0 0.0
2018-May-30 15:29N 46°57' E 031°60'0 0.0
2018-May-30 14:59N 46°57' E 031°60'0 0.0
2018-May-30 14:29N 46°57' E 031°60'0 0.0
2018-May-30 13:59N 46°57' E 031°60'0 0.0
2018-May-30 13:29N 46°57' E 031°60'0 0.0
2018-May-30 12:59N 46°57' E 031°60'0 0.0
2018-May-30 12:29N 46°57' E 031°60'0 0.0
2018-May-30 11:59N 46°57' E 031°60'0 0.0
2018-May-30 11:29N 46°57' E 031°60'0 0.0
2018-May-30 10:59N 46°57' E 031°60'0 0.0
2018-May-30 10:23N 46°57' E 031°60'0 0.0
2018-May-30 09:59N 46°57' E 031°60'0 0.0
2018-May-30 09:29N 46°57' E 031°60'0 0.0
2018-May-30 08:59N 46°57' E 031°60'0 0.0
2018-May-30 08:29N 46°57' E 031°60'0 0.0
2018-May-30 07:59N 46°57' E 031°60'0 0.0
2018-May-30 07:29N 46°57' E 031°60'0 0.0
2018-May-30 06:59N 46°57' E 031°60'0 0.0
2018-May-30 06:26N 46°57' E 031°60'0 0.0
2018-May-30 05:59N 46°57' E 031°60'0 0.0
2018-May-30 05:29N 46°57' E 031°60'0 0.0
2018-May-30 04:59N 46°57' E 031°60'0 0.0
2018-May-30 04:29N 46°57' E 031°60'0 0.0
2018-May-30 03:59N 46°57' E 031°60'0 0.0
2018-May-30 03:29N 46°57' E 031°60'0 0.0
2018-May-30 02:59N 46°57' E 031°60'0 0.0
2018-May-30 02:29N 46°57' E 031°60'0 0.0
2018-May-30 01:59N 46°57' E 031°60'0 0.0
2018-May-30 01:29N 46°57' E 031°60'0 0.0
2018-May-30 00:59N 46°57' E 031°60'0 0.0
2018-May-30 00:29N 46°57' E 031°60'0 0.0
2018-May-29 23:59N 46°57' E 031°60'0 0.0
2018-May-29 23:29N 46°57' E 031°60'0 0.0
2018-May-29 22:59N 46°57' E 031°60'0 0.0
2018-May-29 22:29N 46°57' E 031°60'0 0.0
2018-May-29 21:59N 46°57' E 031°60'0 0.0
2018-May-29 21:29N 46°57' E 031°60'0 0.0
2018-May-29 20:59N 46°57' E 031°60'0 0.0
2018-May-29 20:29N 46°57' E 031°60'0 0.0
2018-May-29 19:59N 46°57' E 031°60'0 0.0
2018-May-29 19:29N 46°57' E 031°60'0 0.0
2018-May-29 18:59N 46°57' E 031°60'0 0.0
2018-May-29 18:29N 46°57' E 031°60'0 0.0
2018-May-29 17:59N 46°57' E 031°60'0 0.0
2018-May-29 17:29N 46°57' E 031°60'0 0.0
2018-May-29 16:59N 46°57' E 031°60'0 0.0
2018-May-29 16:29N 46°57' E 031°60'0 0.0
2018-May-29 15:59N 46°57' E 031°60'0 0.0
2018-May-29 15:29N 46°57' E 031°60'0 0.0
2018-May-29 14:59N 46°57' E 031°60'0 0.0
2018-May-29 14:29N 46°57' E 031°60'0 0.0
2018-May-29 13:59N 46°57' E 031°60'0 0.0
2018-May-29 13:29N 46°57' E 031°60'0 0.0
2018-May-29 12:59N 46°57' E 031°60'0 0.0
2018-May-29 12:29N 46°57' E 031°60'0 0.0
2018-May-29 11:59N 46°57' E 031°60'0 0.0
2018-May-29 11:29N 46°57' E 031°60'0 0.0
2018-May-29 10:59N 46°57' E 031°60'0 0.0
2018-May-29 10:29N 46°57' E 031°60'0 0.0
2018-May-29 09:59N 46°57' E 031°60'0 0.0
2018-May-29 09:29N 46°57' E 031°60'0 0.0
2018-May-29 08:59N 46°57' E 031°60'0 0.0
2018-May-29 08:29N 46°57' E 031°60'0 0.0
2018-May-29 07:59N 46°57' E 031°60'0 0.0
2018-May-29 07:29N 46°57' E 031°60'0 0.0
2018-May-29 06:59N 46°57' E 031°60'0 0.0
2018-May-29 06:29N 46°57' E 031°60'0 0.0
2018-May-29 05:59N 46°57' E 031°60'0 0.0
2018-May-29 05:29N 46°57' E 031°60'0 0.0
2018-May-29 04:59N 46°57' E 031°60'0 0.0
2018-May-29 04:29N 46°57' E 031°60'0 0.0
2018-May-29 03:59N 46°57' E 031°60'0 0.0
2018-May-29 03:29N 46°57' E 031°60'0 0.0
2018-May-29 02:59N 46°57' E 031°60'0 0.0
2018-May-29 02:29N 46°57' E 031°60'0 0.0
2018-May-29 01:59N 46°57' E 031°60'0 0.0
2018-May-29 01:29N 46°57' E 031°60'0 0.0
2018-May-29 00:56N 46°57' E 031°60'0 0.0
2018-May-29 00:29N 46°57' E 031°60'0 0.0
2018-May-28 23:59N 46°57' E 031°60'0 0.0
2018-May-28 23:29N 46°57' E 031°60'0 0.0
2018-May-28 22:59N 46°57' E 031°60'0 0.0
2018-May-28 22:29N 46°57' E 031°60'0 0.0
2018-May-28 21:59N 46°57' E 031°60'0 0.0
2018-May-28 21:29N 46°57' E 031°60'0 0.0
2018-May-28 20:59N 46°57' E 031°60'0 0.0
2018-May-28 20:29N 46°57' E 031°60'0 0.0
2018-May-28 19:59N 46°57' E 031°60'0 0.0
2018-May-28 19:29N 46°57' E 031°60'0 0.0
2018-May-28 18:59N 46°57' E 031°60'0 0.0
2018-May-28 18:29N 46°57' E 031°60'0 0.0
2018-May-28 17:59N 46°57' E 031°60'0 0.0
2018-May-28 17:29N 46°57' E 031°60'0 0.0
2018-May-28 16:59N 46°57' E 031°60'0 0.0
2018-May-28 16:29N 46°57' E 031°60'0 0.0
2018-May-28 15:59N 46°57' E 031°60'0 0.0
2018-May-28 15:29N 46°57' E 031°60'0 0.0
2018-May-28 14:59N 46°57' E 031°60'0 0.0
2018-May-28 14:29N 46°57' E 031°60'0 0.0
2018-May-28 13:59N 46°57' E 031°60'0 0.0
2018-May-28 13:29N 46°57' E 031°60'0 0.0
2018-May-28 12:59N 46°57' E 031°60'0 0.0
2018-May-28 12:29N 46°57' E 031°60'0 0.0
2018-May-28 11:59N 46°57' E 031°60'0 0.0
2018-May-28 11:29N 46°57' E 031°60'0 0.0
2018-May-28 10:59N 46°57' E 031°60'0 0.0
2018-May-28 10:29N 46°57' E 031°60'0 0.0
2018-May-28 09:59N 46°57' E 031°60'0 0.0
2018-May-28 09:29N 46°57' E 031°60'0 0.0
2018-May-28 08:59N 46°57' E 031°60'0 0.0
2018-May-28 08:29N 46°57' E 031°60'0 0.0
2018-May-28 07:59N 46°57' E 031°60'0 0.0
2018-May-28 07:29N 46°57' E 031°60'0 0.0
2018-May-28 06:59N 46°57' E 031°60'0 0.0
2018-May-28 06:29N 46°57' E 031°60'0 0.0
2018-May-28 05:59N 46°57' E 031°60'0 0.0
2018-May-28 05:29N 46°57' E 031°60'0 0.0
2018-May-28 04:59N 46°57' E 031°60'0 0.0
2018-May-28 04:29N 46°57' E 031°60'0 0.0
2018-May-28 04:00N 46°57' E 031°60'1 1.8
2018-May-28 03:30N 46°56' E 032°01'2 4.6
2018-May-28 03:00N 46°54' E 032°01'3 5.4
2018-May-28 02:30N 46°52' E 031°58'3 5.4
2018-May-28 02:00N 46°50' E 031°56'4 7.8
2018-May-28 01:30N 46°46' E 031°53'5 9.9
2018-May-28 01:00N 46°41' E 031°56'5 9.9
2018-May-28 00:30N 46°37' E 031°52'510.2
2018-May-28 00:00N 46°36' E 031°45'510.6
2018-May-27 23:30N 46°35' E 031°38'5 9.8
2018-May-27 23:00N 46°35' E 031°30'5 9.9
2018-May-27 22:29N 46°35' E 031°23'511.3
2018-May-27 22:00N 46°35' E 031°15'510.9
2018-May-27 21:30N 46°35' E 031°07'5 9.5
2018-May-27 21:00N 46°33' E 031°01'4 7.4
2018-May-27 20:30N 46°31' E 030°57'5 9.3
2018-May-27 19:58N 46°26' E 030°57'612.7
2018-May-27 19:30N 46°20' E 030°57'612.5
2018-May-27 19:00N 46°14' E 030°56'612.8
2018-May-27 18:30N 46°08' E 030°52'  
Track history (hours):
 
Tides and Currents Weather Stations Pressure Air Temp Water Temp Dewpoint Dewpoint Depression Visibility Wind Speed Wind Dir Waves Ship Positions

Atlantic Emblem

Last reported at 2018-Jun-06 09:04 UTC. Time now 2018-Jun-22 15:01 UTC.
Position N 36°51' E 012°59'.
Warning: this ship's position is 16 days out of date.

Length 171 m; draft 7.7 m.

Type: Cargo ship. MMSI: 351404034.

Date/timePositionNaut miles runAvg speedWind from/ knotsBaromVisibWave heightAir tempDewpointWater temp
2018-Jun-06 09:04N 36°51' E 012°59'111.5
2018-Jun-06 09:00N 36°51' E 012°59'611.5
2018-Jun-06 08:27N 36°49' E 013°07'511.7
2018-Jun-06 08:00N 36°47' E 013°13'611.9
2018-Jun-06 07:30N 36°44' E 013°20'611.8
2018-Jun-06 06:59N 36°42' E 013°27'1411.3
2018-Jun-06 05:46N 36°36' E 013°42'311.3
2018-Jun-06 05:30N 36°35' E 013°46'611.6
2018-Jun-06 04:56N 36°33' E 013°53'511.8
2018-Jun-06 04:30N 36°31' E 013°59'611.9
2018-Jun-06 04:01N 36°29' E 014°06'612.0
2018-Jun-06 03:31N 36°26' E 014°13'  
2018-Jun-03 16:01N 39°52' E 025°48'012.4
2018-Jun-03 15:59N 39°53' E 025°48'11711.7
2018-Jun-03 06:00N 40°49' E 028°03'1611.8
2018-Jun-03 04:37N 40°52' E 028°24'128 3.8
2018-Jun-01 19:15N 42°50' E 029°31'312.2
2018-Jun-01 18:59N 42°53' E 029°32'612.0
2018-Jun-01 18:30N 42°59' E 029°32'3 5.4
2018-Jun-01 18:00N 42°56' E 029°33'1 2.8
2018-Jun-01 17:30N 42°55' E 029°33'612.4
2018-Jun-01 17:00N 43°01' E 029°34'612.5
2018-Jun-01 16:30N 43°07' E 029°35'712.4
2018-Jun-01 15:59N 43°13' E 029°37'612.5
2018-Jun-01 15:29N 43°19' E 029°38'612.5
2018-Jun-01 15:00N 43°25' E 029°39'612.6
2018-Jun-01 14:30N 43°32' E 029°41'612.6
2018-Jun-01 14:00N 43°38' E 029°42'612.4
2018-Jun-01 13:29N 43°44' E 029°44'612.2
2018-Jun-01 13:00N 43°50' E 029°45'612.1
2018-Jun-01 12:30N 43°56' E 029°47'612.1
2018-Jun-01 12:00N 44°02' E 029°48'612.1
2018-Jun-01 11:30N 44°08' E 029°50'712.2
2018-Jun-01 10:58N 44°14' E 029°52'612.1
2018-Jun-01 10:30N 44°20' E 029°53'612.2
2018-Jun-01 10:00N 44°26' E 029°54'612.2
2018-Jun-01 09:30N 44°32' E 029°56'712.1
2018-Jun-01 08:55N 44°39' E 029°58'512.1
2018-Jun-01 08:30N 44°44' E 029°59'612.1
2018-Jun-01 08:00N 44°50' E 030°00'2311.9
2018-Jun-01 06:05N 45°12' E 030°05'5611.8
2018-Jun-01 01:20N 46°00' E 030°47'511.6
2018-Jun-01 00:56N 46°04' E 030°49'711.9
2018-Jun-01 00:21N 46°11' E 030°54'410.8
2018-May-31 23:59N 46°15' E 030°54'511.1
2018-May-31 23:30N 46°20' E 030°55'611.8
2018-May-31 23:00N 46°26' E 030°56'611.5
2018-May-31 22:30N 46°32' E 030°55'5 9.9
2018-May-31 22:00N 46°34' E 031°02'5 9.5
2018-May-31 21:30N 46°35' E 031°09'611.4
2018-May-31 20:59N 46°35' E 031°17'511.0
2018-May-31 20:30N 46°35' E 031°25'4 8.9
2018-May-31 20:00N 46°35' E 031°31'510.2
2018-May-31 19:30N 46°36' E 031°39'510.3
2018-May-31 18:59N 46°36' E 031°47'5 9.7
2018-May-31 18:30N 46°37' E 031°53'4 8.9
2018-May-31 18:00N 46°41' E 031°56'4 8.9
2018-May-31 17:30N 46°45' E 031°54'5 9.4
2018-May-31 17:00N 46°50' E 031°56'5 9.5
2018-May-31 16:30N 46°53' E 032°00'3 5.8
2018-May-31 16:00N 46°56' E 032°00'1 1.5
2018-May-31 15:29N 46°57' E 031°60'0 0.0
2018-May-31 14:59N 46°57' E 031°60'0 0.0
2018-May-31 14:29N 46°57' E 031°60'0 0.0
2018-May-31 13:59N 46°57' E 031°60'0 0.0
2018-May-31 13:29N 46°57' E 031°60'0 0.0
2018-May-31 12:59N 46°57' E 031°60'0 0.0
2018-May-31 12:29N 46°57' E 031°60'0 0.0
2018-May-31 11:59N 46°57' E 031°60'0 0.0
2018-May-31 11:29N 46°57' E 031°60'0 0.0
2018-May-31 10:59N 46°57' E 031°60'0 0.0
2018-May-31 10:29N 46°57' E 031°60'0 0.0
2018-May-31 09:59N 46°57' E 031°60'0 0.0
2018-May-31 09:29N 46°57' E 031°60'0 0.0
2018-May-31 08:59N 46°57' E 031°60'0 0.0
2018-May-31 08:29N 46°57' E 031°60'0 0.0
2018-May-31 07:59N 46°57' E 031°60'0 0.0
2018-May-31 07:29N 46°57' E 031°60'0 0.0
2018-May-31 06:59N 46°57' E 031°60'0 0.0
2018-May-31 06:29N 46°57' E 031°60'0 0.0
2018-May-31 05:59N 46°57' E 031°60'0 0.0
2018-May-31 05:29N 46°57' E 031°60'0 0.0
2018-May-31 04:59N 46°57' E 031°60'0 0.0
2018-May-31 04:29N 46°57' E 031°60'0 0.0
2018-May-31 03:59N 46°57' E 031°60'0 0.0
2018-May-31 03:29N 46°57' E 031°60'0 0.0
2018-May-31 02:59N 46°57' E 031°60'0 0.0
2018-May-31 02:29N 46°57' E 031°60'0 0.0
2018-May-31 01:59N 46°57' E 031°60'0 0.0
2018-May-31 01:29N 46°57' E 031°60'0 0.0
2018-May-31 00:59N 46°57' E 031°60'0 0.0
2018-May-31 00:29N 46°57' E 031°60'0 0.0
2018-May-30 23:59N 46°57' E 031°60'0 0.0
2018-May-30 23:29N 46°57' E 031°60'0 0.0
2018-May-30 22:59N 46°57' E 031°60'0 0.0
2018-May-30 22:29N 46°57' E 031°60'0 0.0
2018-May-30 21:59N 46°57' E 031°60'0 0.0
2018-May-30 21:29N 46°57' E 031°60'0 0.0
2018-May-30 20:59N 46°57' E 031°60'0 0.0
2018-May-30 20:29N 46°57' E 031°60'0 0.0
2018-May-30 19:59N 46°57' E 031°60'0 0.0
2018-May-30 19:29N 46°57' E 031°60'0 0.0
2018-May-30 18:59N 46°57' E 031°60'0 0.0
2018-May-30 18:29N 46°57' E 031°60'0 0.0
2018-May-30 17:53N 46°57' E 031°60'0 0.0
2018-May-30 17:29N 46°57' E 031°60'0 0.0
2018-May-30 16:59N 46°57' E 031°60'0 0.0
2018-May-30 16:29N 46°57' E 031°60'0 0.0
2018-May-30 15:59N 46°57' E 031°60'0 0.0
2018-May-30 15:29N 46°57' E 031°60'0 0.0
2018-May-30 14:59N 46°57' E 031°60'0 0.0
2018-May-30 14:29N 46°57' E 031°60'0 0.0
2018-May-30 13:59N 46°57' E 031°60'0 0.0
2018-May-30 13:29N 46°57' E 031°60'0 0.0
2018-May-30 12:59N 46°57' E 031°60'0 0.0
2018-May-30 12:29N 46°57' E 031°60'0 0.0
2018-May-30 11:59N 46°57' E 031°60'0 0.0
2018-May-30 11:29N 46°57' E 031°60'0 0.0
2018-May-30 10:59N 46°57' E 031°60'0 0.0
2018-May-30 10:23N 46°57' E 031°60'0 0.0
2018-May-30 09:59N 46°57' E 031°60'0 0.0
2018-May-30 09:29N 46°57' E 031°60'0 0.0
2018-May-30 08:59N 46°57' E 031°60'0 0.0
2018-May-30 08:29N 46°57' E 031°60'0 0.0
2018-May-30 07:59N 46°57' E 031°60'0 0.0
2018-May-30 07:29N 46°57' E 031°60'0 0.0
2018-May-30 06:59N 46°57' E 031°60'0 0.0
2018-May-30 06:26N 46°57' E 031°60'0 0.0
2018-May-30 05:59N 46°57' E 031°60'0 0.0
2018-May-30 05:29N 46°57' E 031°60'0 0.0
2018-May-30 04:59N 46°57' E 031°60'0 0.0
2018-May-30 04:29N 46°57' E 031°60'0 0.0
2018-May-30 03:59N 46°57' E 031°60'0 0.0
2018-May-30 03:29N 46°57' E 031°60'0 0.0
2018-May-30 02:59N 46°57' E 031°60'0 0.0
2018-May-30 02:29N 46°57' E 031°60'0 0.0
2018-May-30 01:59N 46°57' E 031°60'0 0.0
2018-May-30 01:29N 46°57' E 031°60'0 0.0
2018-May-30 00:59N 46°57' E 031°60'0 0.0
2018-May-30 00:29N 46°57' E 031°60'0 0.0
2018-May-29 23:59N 46°57' E 031°60'0 0.0
2018-May-29 23:29N 46°57' E 031°60'0 0.0
2018-May-29 22:59N 46°57' E 031°60'0 0.0
2018-May-29 22:29N 46°57' E 031°60'0 0.0
2018-May-29 21:59N 46°57' E 031°60'0 0.0
2018-May-29 21:29N 46°57' E 031°60'0 0.0
2018-May-29 20:59N 46°57' E 031°60'0 0.0
2018-May-29 20:29N 46°57' E 031°60'0 0.0
2018-May-29 19:59N 46°57' E 031°60'0 0.0
2018-May-29 19:29N 46°57' E 031°60'0 0.0
2018-May-29 18:59N 46°57' E 031°60'0 0.0
2018-May-29 18:29N 46°57' E 031°60'0 0.0
2018-May-29 17:59N 46°57' E 031°60'0 0.0
2018-May-29 17:29N 46°57' E 031°60'0 0.0
2018-May-29 16:59N 46°57' E 031°60'0 0.0
2018-May-29 16:29N 46°57' E 031°60'0 0.0
2018-May-29 15:59N 46°57' E 031°60'0 0.0
2018-May-29 15:29N 46°57' E 031°60'0 0.0
2018-May-29 14:59N 46°57' E 031°60'0 0.0
2018-May-29 14:29N 46°57' E 031°60'0 0.0
2018-May-29 13:59N 46°57' E 031°60'0 0.0
2018-May-29 13:29N 46°57' E 031°60'0 0.0
2018-May-29 12:59N 46°57' E 031°60'0 0.0
2018-May-29 12:29N 46°57' E 031°60'0 0.0
2018-May-29 11:59N 46°57' E 031°60'0 0.0
2018-May-29 11:29N 46°57' E 031°60'0 0.0
2018-May-29 10:59N 46°57' E 031°60'0 0.0
2018-May-29 10:29N 46°57' E 031°60'0 0.0
2018-May-29 09:59N 46°57' E 031°60'0 0.0
2018-May-29 09:29N 46°57' E 031°60'0 0.0
2018-May-29 08:59N 46°57' E 031°60'0 0.0
2018-May-29 08:29N 46°57' E 031°60'0 0.0
2018-May-29 07:59N 46°57' E 031°60'0 0.0
2018-May-29 07:29N 46°57' E 031°60'0 0.0
2018-May-29 06:59N 46°57' E 031°60'0 0.0
2018-May-29 06:29N 46°57' E 031°60'0 0.0
2018-May-29 05:59N 46°57' E 031°60'0 0.0
2018-May-29 05:29N 46°57' E 031°60'0 0.0
2018-May-29 04:59N 46°57' E 031°60'0 0.0
2018-May-29 04:29N 46°57' E 031°60'0 0.0
2018-May-29 03:59N 46°57' E 031°60'0 0.0
2018-May-29 03:29N 46°57' E 031°60'0 0.0
2018-May-29 02:59N 46°57' E 031°60'0 0.0
2018-May-29 02:29N 46°57' E 031°60'0 0.0
2018-May-29 01:59N 46°57' E 031°60'0 0.0
2018-May-29 01:29N 46°57' E 031°60'0 0.0
2018-May-29 00:56N 46°57' E 031°60'0 0.0
2018-May-29 00:29N 46°57' E 031°60'0 0.0
2018-May-28 23:59N 46°57' E 031°60'0 0.0
2018-May-28 23:29N 46°57' E 031°60'0 0.0
2018-May-28 22:59N 46°57' E 031°60'0 0.0
2018-May-28 22:29N 46°57' E 031°60'0 0.0
2018-May-28 21:59N 46°57' E 031°60'0 0.0
2018-May-28 21:29N 46°57' E 031°60'0 0.0
2018-May-28 20:59N 46°57' E 031°60'0 0.0
2018-May-28 20:29N 46°57' E 031°60'0 0.0
2018-May-28 19:59N 46°57' E 031°60'0 0.0
2018-May-28 19:29N 46°57' E 031°60'0 0.0
2018-May-28 18:59N 46°57' E 031°60'0 0.0
2018-May-28 18:29N 46°57' E 031°60'0 0.0
2018-May-28 17:59N 46°57' E 031°60'0 0.0
2018-May-28 17:29N 46°57' E 031°60'0 0.0
2018-May-28 16:59N 46°57' E 031°60'0 0.0
2018-May-28 16:29N 46°57' E 031°60'0 0.0
2018-May-28 15:59N 46°57' E 031°60'0 0.0
2018-May-28 15:29N 46°57' E 031°60'0 0.0
2018-May-28 14:59N 46°57' E 031°60'0 0.0
2018-May-28 14:29N 46°57' E 031°60'0 0.0
2018-May-28 13:59N 46°57' E 031°60'0 0.0
2018-May-28 13:29N 46°57' E 031°60'0 0.0
2018-May-28 12:59N 46°57' E 031°60'0 0.0
2018-May-28 12:29N 46°57' E 031°60'0 0.0
2018-May-28 11:59N 46°57' E 031°60'0 0.0
2018-May-28 11:29N 46°57' E 031°60'0 0.0
2018-May-28 10:59N 46°57' E 031°60'0 0.0
2018-May-28 10:29N 46°57' E 031°60'0 0.0
2018-May-28 09:59N 46°57' E 031°60'0 0.0
2018-May-28 09:29N 46°57' E 031°60'0 0.0
2018-May-28 08:59N 46°57' E 031°60'0 0.0
2018-May-28 08:29N 46°57' E 031°60'0 0.0
2018-May-28 07:59N 46°57' E 031°60'0 0.0
2018-May-28 07:29N 46°57' E 031°60'0 0.0
2018-May-28 06:59N 46°57' E 031°60'0 0.0
2018-May-28 06:29N 46°57' E 031°60'0 0.0
2018-May-28 05:59N 46°57' E 031°60'0 0.0
2018-May-28 05:29N 46°57' E 031°60'0 0.0
2018-May-28 04:59N 46°57' E 031°60'0 0.0
2018-May-28 04:29N 46°57' E 031°60'0 0.0
2018-May-28 04:00N 46°57' E 031°60'1 1.8
2018-May-28 03:30N 46°56' E 032°01'2 4.6
2018-May-28 03:00N 46°54' E 032°01'3 5.4
2018-May-28 02:30N 46°52' E 031°58'3 5.4
2018-May-28 02:00N 46°50' E 031°56'4 7.8
2018-May-28 01:30N 46°46' E 031°53'5 9.9
2018-May-28 01:00N 46°41' E 031°56'5 9.9
2018-May-28 00:30N 46°37' E 031°52'510.2
2018-May-28 00:00N 46°36' E 031°45'510.6
2018-May-27 23:30N 46°35' E 031°38'5 9.8
2018-May-27 23:00N 46°35' E 031°30'5 9.9
2018-May-27 22:29N 46°35' E 031°23'511.3
2018-May-27 22:00N 46°35' E 031°15'510.9
2018-May-27 21:30N 46°35' E 031°07'5 9.5
2018-May-27 21:00N 46°33' E 031°01'4 7.4
2018-May-27 20:30N 46°31' E 030°57'5 9.3
2018-May-27 19:58N 46°26' E 030°57'612.7
2018-May-27 19:30N 46°20' E 030°57'612.5
2018-May-27 19:00N 46°14' E 030°56'612.8
2018-May-27 18:30N 46°08' E 030°52'  

Dump ship's entire track history